DMAD Reservoir




Date Reservoir Capacity (AF) Hourly Avg. Stream Stage (ft) Reservoir Outflow (cfs) Reservoir Gate 1 Height (ft) Reservoir Gate 2 Height (ft) Reservoir Gate 3 Height (ft) Stream Flow (cfs) Stream Conductivity (ppm) Battery Voltage (V) Reservoir Height (ft) Canal Flow (cfs) Canal Height (ft) Canal Flow 2 (ft)
04/01/2017 6,454 0 0.00 0.00 0.00 0.00 0.00 13.58 61.63 0.00 0.00
04/02/2017 6,611 0 0.00 0.00 0.00 0.00 0.00 13.54 61.81 0.00 0.00
04/03/2017 6,637 0 0.00 0.00 0.00 0.00 0.00 13.58 61.84 0.00 0.00
04/04/2017 6,620 0 0.00 0.00 0.00 0.00 0.00 13.64 61.82 0.00 0.00
04/05/2017 6,611 0 0.00 0.00 0.00 0.00 0.00 13.61 61.81 0.00 0.00
04/06/2017 6,611 0 0.00 0.00 0.00 0.00 0.00 13.46 61.81 0.00 0.00
04/07/2017 6,594 0 0.00 0.00 0.00 0.00 0.00 13.39 61.79 0.00 0.00
04/08/2017 6,603 0 0.00 0.00 0.00 0.00 0.00 13.40 61.80 0.00 0.00
04/09/2017 6,611 0 0.00 0.00 0.00 0.00 0.00 13.43 61.81 0.00 0.00
04/10/2017 6,611 0 0.00 0.00 0.00 0.00 0.00 13.65 61.81 0.00 0.00
04/11/2017 6,603 0 0.00 0.00 0.00 0.00 0.00 13.58 61.80 0.00 0.00
04/12/2017 6,611 0 0.00 0.00 0.00 0.00 0.00 13.57 61.81 0.00 0.00
04/13/2017 6,629 0 0.00 0.00 0.00 0.00 0.00 13.53 61.83 0.00 0.00
04/14/2017 6,664 0 0.00 0.00 0.00 0.00 0.00 13.57 61.87 0.00 0.00
04/15/2017 6,733 0 0.00 0.00 0.00 0.00 0.00 13.62 61.95 0.00 0.00
04/16/2017 6,751 62 0.00 0.00 0.73 0.00 0.00 13.27 61.97 0.00 0.00
04/17/2017 6,524 139 0.00 0.00 1.65 0.00 0.00 13.33 61.71 0.00 0.00
04/18/2017 6,358 167 0.00 0.00 2.00 0.00 0.00 13.44 61.52 0.00 0.00
04/19/2017 6,559 55 0.00 0.00 0.66 0.00 0.00 13.22 61.75 0.00 0.00
04/20/2017 6,876 50 0.00 0.00 0.58 0.00 0.00 13.32 62.10 0.00 0.00
04/21/2017 6,964 77 0.00 0.00 0.89 0.00 0.00 13.51 62.19 0.00 0.00
04/22/2017 6,836 119 0.17 0.00 1.21 0.00 0.00 13.37 62.06 0.00 0.00
04/23/2017 6,834 127 0.45 0.00 1.03 0.00 0.00 13.17 62.00 0.00 0.00
04/24/2017 6,672 113 0.52 0.00 0.80 0.00 0.00 13.38 61.88 0.00 0.00
04/25/2017 6,515 121 0.62 0.00 0.80 0.00 0.00 13.40 61.70 0.00 0.00
04/26/2017 6,385 120 0.62 0.00 0.80 0.00 0.00 13.47 61.55 0.00 0.00
04/27/2017 6,454 144 0.90 0.00 0.80 0.00 0.00 13.35 61.63 0.00 0.00
04/28/2017 6,358 208 1.52 0.00 0.95 0.00 0.00 13.21 61.52 0.00 0.00
04/29/2017 6,210 209 1.52 0.00 0.99 0.00 0.00 13.42 61.35 0.00 0.00
04/30/2017 6,175 210 1.52 0.00 1.00 0.00 0.00 13.45 61.31 0.00 0.00
Average 64 0.00 0.00
Maximum 210 0.00 0.00
Minimum 0 0.00 0.00
Total Volume (AF) 3,809 0.00 0.00